Time;durP1;ratioP1;P1;durP2;ratioP2;P2;SDS_P1;SDS_P2;PMS_P1;PMS_P2;Temp;Humidity;BMP_temperature;BMP_pressure;BME280_temperature;BME280_humidity;BME280_pressure;Samples;Min_cycle;Max_cycle;Signal;HPM_P1;HPM_P2
2024/02/17 00:00:05;;;;;;;9.33;8.87;;;14.30;45.40;;;;;;4994638;28;20202;-82
2024/02/17 00:02:34;;;;;;;9.30;8.60;;;14.20;45.30;;;;;;4995675;28;20501;-83
2024/02/17 00:05:01;;;;;;;8.40;8.00;;;14.20;45.30;;;;;;5010909;28;20871;-83
2024/02/17 00:07:32;;;;;;;9.30;8.70;;;14.20;46.40;;;;;;5004642;28;20433;-83
2024/02/17 00:09:58;;;;;;;8.67;8.10;;;14.20;46.80;;;;;;5004678;28;20461;-82
2024/02/17 00:12:23;;;;;;;8.33;7.83;;;14.30;46.50;;;;;;5008414;28;20532;-83
2024/02/17 00:14:49;;;;;;;9.20;8.60;;;14.30;45.60;;;;;;5004272;28;20194;-82
2024/02/17 00:17:17;;;;;;;9.00;8.33;;;14.40;45.50;;;;;;4984783;28;20218;-84
2024/02/17 00:19:44;;;;;;;9.17;8.57;;;14.40;45.50;;;;;;4981917;28;20200;-82
2024/02/17 00:22:10;;;;;;;8.40;8.00;;;14.40;45.50;;;;;;4998326;28;20440;-83
2024/02/17 00:24:38;;;;;;;8.47;7.97;;;14.50;45.20;;;;;;5003772;28;20471;-83
2024/02/17 00:27:04;;;;;;;8.00;7.57;;;14.50;44.50;;;;;;5002417;28;20182;-82
2024/02/17 00:29:29;;;;;;;8.67;8.17;;;14.40;44.50;;;;;;5004995;28;20475;-83
2024/02/17 00:31:55;;;;;;;7.70;7.30;;;14.50;44.40;;;;;;4998996;28;20473;-83
2024/02/17 00:34:23;;;;;;;8.63;8.23;;;14.50;44.20;;;;;;5000134;28;20190;-84
2024/02/17 00:36:48;;;;;;;7.93;7.40;;;14.50;44.10;;;;;;5002083;28;20457;-83
2024/02/17 00:39:14;;;;;;;8.73;8.33;;;14.50;43.90;;;;;;5003632;28;20999;-82
2024/02/17 00:41:41;;;;;;;8.00;7.60;;;14.50;44.00;;;;;;5000413;28;20206;-82
2024/02/17 00:44:07;;;;;;;8.87;8.27;;;14.50;44.50;;;;;;4998254;28;20203;-83
2024/02/17 00:46:32;;;;;;;7.93;7.63;;;14.30;44.70;;;;;;5000505;28;20444;-83
2024/02/17 00:49:01;;;;;;;8.80;8.30;;;14.10;45.30;;;;;;5000568;28;20206;-82
2024/02/17 00:51:27;;;;;;;8.67;8.27;;;13.90;46.20;;;;;;4998578;28;20301;-82
2024/02/17 00:53:53;;;;;;;8.47;7.97;;;13.80;47.10;;;;;;5003505;28;20432;-83
2024/02/17 00:56:21;;;;;;;7.63;7.13;;;13.70;47.60;;;;;;4998110;28;20434;-83
2024/02/17 00:58:50;;;;;;;7.63;7.23;;;13.70;48.60;;;;;;5000442;28;20188;-83
2024/02/17 01:01:16;;;;;;;7.37;6.73;;;13.70;49.10;;;;;;5000895;28;20540;-83
2024/02/17 01:03:41;;;;;;;7.93;7.43;;;13.60;48.90;;;;;;5006430;28;20476;-83
2024/02/17 01:06:09;;;;;;;7.80;7.30;;;13.60;49.50;;;;;;4982554;28;20440;-83
2024/02/17 01:08:35;;;;;;;7.50;7.13;;;13.70;49.40;;;;;;4982187;28;20214;-83
2024/02/17 01:11:00;;;;;;;7.50;7.17;;;13.70;48.80;;;;;;4995061;28;20480;-81
2024/02/17 01:13:26;;;;;;;7.70;7.30;;;13.60;48.80;;;;;;4997519;28;20190;-83
2024/02/17 01:15:52;;;;;;;7.17;6.67;;;13.80;50.20;;;;;;5001957;28;20346;-83
2024/02/17 01:18:17;;;;;;;7.13;6.83;;;13.90;49.50;;;;;;4997624;28;20183;-83
2024/02/17 01:20:43;;;;;;;6.50;6.13;;;14.00;49.10;;;;;;4999994;28;20217;-82
2024/02/17 01:23:08;;;;;;;7.30;6.97;;;14.00;48.80;;;;;;4999943;28;20189;-83
2024/02/17 01:25:34;;;;;;;7.20;6.90;;;14.10;48.10;;;;;;5000708;28;20194;-83
2024/02/17 01:27:59;;;;;;;7.20;6.80;;;14.10;47.70;;;;;;5019576;28;20190;-83
2024/02/17 01:30:25;;;;;;;7.33;7.03;;;14.10;47.90;;;;;;5006011;28;20213;-83
2024/02/17 01:32:50;;;;;;;6.57;6.37;;;14.10;47.50;;;;;;5018380;28;20183;-83
2024/02/17 01:35:16;;;;;;;7.20;6.90;;;14.10;46.30;;;;;;4993176;28;20182;-83
2024/02/17 01:37:41;;;;;;;6.87;6.47;;;14.00;46.50;;;;;;5004847;28;20194;-82
2024/02/17 01:40:07;;;;;;;7.47;7.17;;;13.90;46.50;;;;;;5001306;28;20214;-82
2024/02/17 01:42:33;;;;;;;6.80;6.37;;;13.80;47.90;;;;;;4995456;28;20193;-82
2024/02/17 01:44:59;;;;;;;6.93;6.70;;;13.90;48.20;;;;;;5006593;28;20948;-83
2024/02/17 01:47:25;;;;;;;7.33;7.03;;;13.80;47.60;;;;;;5021841;28;20190;-82
2024/02/17 01:49:51;;;;;;;7.00;6.70;;;13.90;48.20;;;;;;5003946;28;20472;-82
2024/02/17 01:52:18;;;;;;;6.90;6.50;;;13.90;48.20;;;;;;5007541;28;20476;-83
2024/02/17 01:54:45;;;;;;;7.03;6.60;;;14.00;48.30;;;;;;5021246;28;20436;-83
2024/02/17 01:57:11;;;;;;;6.63;6.33;;;14.00;47.40;;;;;;5001270;28;20433;-83
2024/02/17 01:59:39;;;;;;;6.83;6.63;;;13.80;47.70;;;;;;4996845;28;20432;-83
2024/02/17 02:02:04;;;;;;;6.73;6.50;;;13.70;47.90;;;;;;5003842;28;20273;-83
2024/02/17 02:04:30;;;;;;;6.47;6.27;;;13.60;48.90;;;;;;5004946;28;20908;-83
2024/02/17 02:06:56;;;;;;;6.40;6.20;;;13.50;49.30;;;;;;5007555;28;20190;-83
2024/02/17 02:09:25;;;;;;;6.20;6.00;;;13.60;50.30;;;;;;5002599;28;20207;-83
2024/02/17 02:11:51;;;;;;;6.83;6.53;;;13.60;49.70;;;;;;5007606;28;20202;-83
2024/02/17 02:14:18;;;;;;;5.83;5.63;;;13.50;50.20;;;;;;5003203;28;20480;-83
2024/02/17 02:16:45;;;;;;;5.97;5.77;;;13.50;50.30;;;;;;5006287;28;20428;-83
2024/02/17 02:19:11;;;;;;;6.27;5.97;;;13.60;50.00;;;;;;5008891;28;20445;-83
2024/02/17 02:21:38;;;;;;;5.53;5.33;;;13.60;50.20;;;;;;5015022;28;20460;-83
2024/02/17 02:24:07;;;;;;;5.83;5.63;;;13.80;49.40;;;;;;4990664;28;20453;-83
2024/02/17 02:26:32;;;;;;;7.47;7.17;;;13.80;47.10;;;;;;4992059;28;20497;-81
2024/02/17 02:28:58;;;;;;;6.73;6.53;;;13.80;44.90;;;;;;4991196;28;20471;-82
2024/02/17 02:31:25;;;;;;;7.43;7.13;;;13.70;44.10;;;;;;4990565;28;20438;-82
2024/02/17 02:33:51;;;;;;;9.20;8.70;;;13.80;43.40;;;;;;4992861;28;20438;-81
2024/02/17 02:36:20;;;;;;;9.13;8.63;;;13.70;42.10;;;;;;4997710;28;20445;-82
2024/02/17 02:38:48;;;;;;;9.03;8.53;;;13.70;42.40;;;;;;4994232;28;20434;-82
2024/02/17 02:41:15;;;;;;;10.27;9.77;;;13.60;42.20;;;;;;4990665;28;20450;-82
2024/02/17 02:43:41;;;;;;;10.23;9.73;;;13.60;42.50;;;;;;4990447;28;20430;-83
2024/02/17 02:46:07;;;;;;;10.90;10.40;;;13.50;42.30;;;;;;4991512;28;20432;-82
2024/02/17 02:48:33;;;;;;;11.07;10.47;;;13.40;42.80;;;;;;4991395;28;20471;-80
2024/02/17 02:50:59;;;;;;;12.30;11.57;;;13.50;43.00;;;;;;4992301;28;20454;-83
2024/02/17 02:53:25;;;;;;;11.40;10.60;;;13.40;43.40;;;;;;4997327;28;20178;-82
2024/02/17 02:55:52;;;;;;;11.97;11.27;;;13.40;43.00;;;;;;5010431;28;20430;-82
2024/02/17 02:58:20;;;;;;;11.80;11.20;;;13.40;43.60;;;;;;5018010;28;20423;-82
2024/02/17 03:00:49;;;;;;;13.47;12.03;;;13.40;43.70;;;;;;4998049;28;20467;-83
2024/02/17 03:03:15;;;;;;;12.50;11.83;;;13.30;44.10;;;;;;4993904;28;20426;-82
2024/02/17 03:05:40;;;;;;;13.37;12.60;;;13.30;44.50;;;;;;4992204;28;20440;-83
2024/02/17 03:08:06;;;;;;;13.13;12.37;;;13.40;44.30;;;;;;4989168;28;20447;-83
2024/02/17 03:10:31;;;;;;;12.93;12.20;;;13.40;43.90;;;;;;4986230;28;20270;-83
2024/02/17 03:12:58;;;;;;;13.67;12.87;;;13.40;43.80;;;;;;4993249;28;20179;-83
2024/02/17 03:15:23;;;;;;;14.07;13.20;;;13.40;44.10;;;;;;5002068;28;20193;-82
2024/02/17 03:17:56;;;;;;;14.43;13.53;;;13.40;44.40;;;;;;5009220;28;20417;-82
2024/02/17 03:20:24;;;;;;;14.97;14.07;;;13.40;43.80;;;;;;5004021;28;20218;-83
2024/02/17 03:22:50;;;;;;;14.40;13.53;;;13.40;43.10;;;;;;5012917;28;20426;-83
2024/02/17 03:25:15;;;;;;;14.27;13.47;;;13.20;44.40;;;;;;5006745;28;20437;-82
2024/02/17 03:27:41;;;;;;;15.07;14.17;;;13.20;44.40;;;;;;4995404;28;20187;-82
2024/02/17 03:30:07;;;;;;;15.80;14.90;;;13.30;44.50;;;;;;5006516;28;20217;-83
2024/02/17 03:32:33;;;;;;;15.47;14.57;;;13.20;44.40;;;;;;5021633;28;20185;-83
2024/02/17 03:34:59;;;;;;;15.87;14.87;;;13.00;44.20;;;;;;5006054;28;20445;-84
2024/02/17 03:37:25;;;;;;;16.00;15.10;;;13.10;44.40;;;;;;5001788;28;20441;-83
2024/02/17 03:39:51;;;;;;;17.33;16.27;;;13.20;44.40;;;;;;5002878;28;20424;-82
2024/02/17 03:42:17;;;;;;;17.33;16.23;;;13.10;44.30;;;;;;5001695;28;20205;-83
2024/02/17 03:44:44;;;;;;;16.40;15.40;;;13.00;44.20;;;;;;5003225;28;20433;-82
2024/02/17 03:47:11;;;;;;;17.70;16.53;;;12.80;45.60;;;;;;5002015;28;20647;-83
2024/02/17 03:49:37;;;;;;;17.17;16.07;;;12.90;45.70;;;;;;4999805;28;20888;-82
2024/02/17 03:52:03;;;;;;;17.60;16.37;;;13.00;45.30;;;;;;5001701;28;20437;-83
2024/02/17 03:54:29;;;;;;;16.20;15.20;;;13.00;44.20;;;;;;4996965;28;20422;-83
2024/02/17 03:56:54;;;;;;;16.47;15.47;;;13.00;44.40;;;;;;5004470;28;20429;-82
2024/02/17 03:59:20;;;;;;;17.47;16.17;;;13.00;43.70;;;;;;5000322;28;20183;-82
2024/02/17 04:01:45;;;;;;;18.33;17.03;;;12.90;44.20;;;;;;5015970;28;20234;-83
2024/02/17 04:04:11;;;;;;;18.40;17.20;;;12.90;43.90;;;;;;5003926;28;20193;-83
2024/02/17 04:06:36;;;;;;;18.10;16.77;;;13.00;44.20;;;;;;5001014;28;20193;-83
2024/02/17 04:09:02;;;;;;;17.00;15.97;;;12.90;43.70;;;;;;5004064;28;20220;-82
2024/02/17 04:11:28;;;;;;;17.43;16.33;;;12.70;44.00;;;;;;4995062;28;20213;-82
2024/02/17 04:13:56;;;;;;;18.20;17.00;;;12.60;44.80;;;;;;4998513;28;20183;-82
2024/02/17 04:16:27;;;;;;;17.63;16.43;;;12.60;45.50;;;;;;5016335;28;20552;-83
2024/02/17 04:18:52;;;;;;;17.67;16.47;;;12.50;45.50;;;;;;4996569;28;20441;-82
2024/02/17 04:21:18;;;;;;;16.47;15.40;;;12.60;46.30;;;;;;5018100;22;20497;-78
2024/02/17 04:23:44;;;;;;;16.30;15.37;;;12.70;45.90;;;;;;4994230;28;20565;-80
2024/02/17 04:26:11;;;;;;;15.30;14.30;;;12.70;44.20;;;;;;5003420;28;20186;-80
2024/02/17 04:28:40;;;;;;;15.50;14.50;;;12.80;44.10;;;;;;4997112;28;20205;-81
2024/02/17 04:31:18;;;;;;;14.63;13.63;;;12.90;43.50;;;;;;4983111;28;20588;-80
2024/02/17 04:33:50;;;;;;;15.43;14.53;;;13.10;42.80;;;;;;4993124;28;20431;-80
2024/02/17 04:36:33;;;;;;;14.90;14.00;;;13.30;40.80;;;;;;4991048;28;20523;-80
2024/02/17 04:38:59;;;;;;;14.93;14.10;;;13.40;39.80;;;;;;4993812;28;20488;-80
2024/02/17 04:41:25;;;;;;;13.77;12.87;;;13.60;39.10;;;;;;4993590;28;20876;-80
2024/02/17 04:43:54;;;;;;;14.50;13.70;;;13.70;38.10;;;;;;4994867;28;20181;-81
2024/02/17 04:46:20;;;;;;;14.10;13.30;;;13.70;37.20;;;;;;4993991;28;20851;-80
2024/02/17 04:48:45;;;;;;;13.23;12.43;;;13.80;36.70;;;;;;4993250;28;20511;-80
2024/02/17 04:51:11;;;;;;;13.13;12.43;;;13.90;35.00;;;;;;4994598;28;20613;-80
2024/02/17 04:53:37;;;;;;;12.30;11.67;;;13.80;34.90;;;;;;4994195;28;20685;-80
2024/02/17 04:56:03;;;;;;;13.77;12.87;;;13.70;34.80;;;;;;4993932;28;20629;-80
2024/02/17 04:58:29;;;;;;;14.37;13.57;;;13.70;34.80;;;;;;4993534;28;20189;-81
2024/02/17 05:00:56;;;;;;;14.80;13.83;;;13.60;34.60;;;;;;4994146;28;20473;-80
2024/02/17 05:03:27;;;;;;;14.60;13.80;;;13.70;35.20;;;;;;5000455;28;20733;-80
2024/02/17 05:05:53;;;;;;;15.60;14.60;;;13.60;35.40;;;;;;4992530;28;20533;-81
2024/02/17 05:08:22;;;;;;;17.10;15.90;;;13.60;35.40;;;;;;4984362;28;20462;-81
2024/02/17 05:10:49;;;;;;;17.00;15.80;;;13.50;35.90;;;;;;5000415;28;20469;-81
2024/02/17 05:13:19;;;;;;;19.00;17.67;;;13.50;36.20;;;;;;4999380;28;20444;-81
2024/02/17 05:15:45;;;;;;;17.97;16.77;;;13.50;36.10;;;;;;5001164;28;20464;-81
2024/02/17 05:18:11;;;;;;;16.17;15.07;;;13.50;36.00;;;;;;4998513;28;20430;-81
2024/02/17 05:20:37;;;;;;;18.70;17.50;;;13.40;36.70;;;;;;4982557;28;20262;-80
2024/02/17 05:23:05;;;;;;;18.97;17.67;;;13.40;36.80;;;;;;4993067;28;20433;-80
2024/02/17 05:25:33;;;;;;;17.23;15.93;;;13.40;37.10;;;;;;4992281;28;20437;-81
2024/02/17 05:27:59;;;;;;;17.63;16.50;;;13.40;37.20;;;;;;4992959;28;20794;-80
2024/02/17 05:30:26;;;;;;;18.80;17.43;;;13.40;37.60;;;;;;4993545;28;20477;-80
2024/02/17 05:32:52;;;;;;;18.90;17.60;;;13.40;37.20;;;;;;4977594;28;20507;-81
2024/02/17 05:35:24;;;;;;;18.73;17.53;;;13.40;37.80;;;;;;4998903;28;20515;-80
2024/02/17 05:37:51;;;;;;;18.90;17.50;;;13.40;37.80;;;;;;4997332;28;20440;-81
2024/02/17 05:40:17;;;;;;;17.57;16.47;;;13.40;37.70;;;;;;5001589;28;20449;-80
2024/02/17 05:42:44;;;;;;;18.30;17.10;;;13.40;37.70;;;;;;5003367;28;20432;-81
2024/02/17 05:45:10;;;;;;;18.50;17.30;;;13.40;37.70;;;;;;5001308;28;20194;-80
2024/02/17 05:47:39;;;;;;;18.13;16.80;;;13.50;37.50;;;;;;4993583;28;20429;-80
2024/02/17 05:50:10;;;;;;;18.33;17.03;;;13.40;37.60;;;;;;4992833;28;20473;-80
2024/02/17 05:53:17;;;;;;;18.63;17.43;;;13.40;37.80;;;;;;4990890;28;20498;-80
2024/02/17 05:55:44;;;;;;;19.17;17.77;;;13.40;38.10;;;;;;4993025;28;20436;-80
2024/02/17 05:58:13;;;;;;;19.50;18.10;;;13.40;38.10;;;;;;4997428;28;20428;-80
2024/02/17 06:00:40;;;;;;;18.13;16.93;;;13.30;38.00;;;;;;4996094;28;20994;-80
2024/02/17 06:03:08;;;;;;;20.93;19.53;;;13.40;38.00;;;;;;4994715;28;20455;-80
2024/02/17 06:05:34;;;;;;;20.47;19.07;;;13.30;38.20;;;;;;4993588;28;20532;-81
2024/02/17 06:08:01;;;;;;;18.83;17.53;;;13.30;38.30;;;;;;4995893;28;20471;-79
2024/02/17 06:10:32;;;;;;;21.40;19.70;;;13.30;38.20;;;;;;4994805;28;20480;-80
2024/02/17 06:12:58;;;;;;;20.00;18.60;;;13.30;38.20;;;;;;4978279;28;20458;-80
2024/02/17 06:15:24;;;;;;;20.30;18.87;;;13.30;38.40;;;;;;4996566;28;21008;-80
2024/02/17 06:23:28;;;;;;;18.67;17.40;;;13.30;37.80;;;;;;4997412;28;20431;-80
2024/02/17 06:25:54;;;;;;;20.33;19.03;;;13.20;38.70;;;;;;4998519;28;20437;-81
2024/02/17 06:28:20;;;;;;;22.10;20.50;;;13.20;38.20;;;;;;5009749;28;20434;-82
2024/02/17 06:30:55;;;;;;;20.57;19.13;;;13.10;38.60;;;;;;5001776;28;20287;-82
2024/02/17 06:33:23;;;;;;;21.13;19.50;;;13.10;38.60;;;;;;4996831;28;20643;-82
2024/02/17 06:35:49;;;;;;;20.80;19.20;;;13.10;38.50;;;;;;5004149;28;20468;-80
2024/02/17 06:38:17;;;;;;;21.23;19.73;;;13.00;38.50;;;;;;4996206;28;20951;-80
2024/02/17 06:40:46;;;;;;;20.97;19.37;;;13.00;38.50;;;;;;4996625;28;20222;-81
2024/02/17 06:43:17;;;;;;;21.33;19.83;;;13.00;39.00;;;;;;5000205;28;20439;-80
2024/02/17 06:45:43;;;;;;;21.70;20.03;;;13.00;38.90;;;;;;5000356;28;20445;-80
2024/02/17 06:48:32;;;;;;;21.27;19.77;;;13.00;39.00;;;;;;4994852;28;20471;-82
2024/02/17 06:50:57;;;;;;;20.83;19.33;;;13.00;39.00;;;;;;4995725;28;20236;-81
2024/02/17 06:56:35;;;;;;;23.27;21.50;;;13.00;37.70;;;;;;4979034;28;20265;-82
2024/02/17 06:59:01;;;;;;;21.40;19.80;;;13.00;37.90;;;;;;4977635;28;20867;-81
2024/02/17 07:01:26;;;;;;;23.67;22.00;;;12.90;38.30;;;;;;4995655;28;20461;-82
2024/02/17 07:03:52;;;;;;;23.13;21.43;;;12.80;38.50;;;;;;4999168;28;20201;-81
2024/02/17 07:06:18;;;;;;;21.23;19.57;;;12.70;38.40;;;;;;5003555;28;20217;-82
2024/02/17 07:08:46;;;;;;;22.90;21.20;;;12.70;38.90;;;;;;5005774;28;20207;-80
2024/02/17 07:11:14;;;;;;;25.30;23.40;;;12.70;39.50;;;;;;4994428;28;20858;-81
2024/02/17 07:13:42;;;;;;;24.33;22.53;;;12.70;39.60;;;;;;4995494;28;20440;-81
2024/02/17 07:16:09;;;;;;;21.70;20.10;;;12.70;39.70;;;;;;4995695;28;20513;-82
2024/02/17 07:18:34;;;;;;;23.40;21.63;;;12.70;39.60;;;;;;4997170;28;20877;-80
2024/02/17 07:21:00;;;;;;;23.47;21.70;;;12.80;39.30;;;;;;4995945;28;20489;-81
2024/02/17 07:23:30;;;;;;;23.63;21.77;;;12.80;39.50;;;;;;4995071;28;20566;-79
2024/02/17 07:25:56;;;;;;;24.17;22.37;;;12.80;39.20;;;;;;4995431;28;20193;-80
2024/02/17 07:28:22;;;;;;;23.13;21.27;;;12.80;38.80;;;;;;4999286;28;20450;-81
2024/02/17 07:30:47;;;;;;;21.47;19.87;;;12.70;39.30;;;;;;4991446;28;20510;-81
2024/02/17 07:33:14;;;;;;;23.37;21.57;;;12.80;39.10;;;;;;5003160;28;20190;-79
2024/02/17 07:35:42;;;;;;;21.93;20.00;;;12.80;38.70;;;;;;4994947;28;20562;-79
2024/02/17 07:38:10;;;;;;;21.27;19.47;;;12.70;38.70;;;;;;4993579;28;20440;-83
2024/02/17 07:40:36;;;;;;;22.40;20.70;;;12.70;38.10;;;;;;4994967;28;20500;-80
2024/02/17 07:43:17;;;;;;;20.57;18.97;;;12.70;38.40;;;;;;4994309;28;20983;-80
2024/02/17 07:45:53;;;;;;;21.27;19.60;;;12.80;37.90;;;;;;4993619;28;20700;-81
2024/02/17 07:48:36;;;;;;;20.33;18.93;;;12.80;37.40;;;;;;4995170;28;20432;-79
2024/02/17 07:51:03;;;;;;;21.67;20.07;;;12.90;37.30;;;;;;4994225;28;20464;-78
2024/02/17 07:53:29;;;;;;;21.67;20.20;;;12.90;37.20;;;;;;4994219;28;20437;-77
2024/02/17 07:55:56;;;;;;;20.30;18.90;;;12.90;36.00;;;;;;4995512;28;20503;-79
2024/02/17 07:58:23;;;;;;;22.07;20.60;;;12.90;36.10;;;;;;4997415;28;20200;-80
2024/02/17 08:00:48;;;;;;;20.57;19.17;;;12.90;36.40;;;;;;4995996;28;20456;-80
2024/02/17 08:03:14;;;;;;;21.33;19.87;;;12.90;36.30;;;;;;4994290;28;20524;-80
2024/02/17 08:05:42;;;;;;;22.80;21.10;;;12.90;36.40;;;;;;4997089;28;20186;-80
2024/02/17 08:08:14;;;;;;;21.53;19.83;;;12.90;36.50;;;;;;4995335;28;20189;-81
2024/02/17 08:10:40;;;;;;;20.90;19.20;;;13.00;36.50;;;;;;4991313;28;20484;-80
2024/02/17 08:13:08;;;;;;;21.73;19.90;;;13.00;36.30;;;;;;4994961;28;20433;-80
2024/02/17 08:15:34;;;;;;;20.43;18.77;;;13.00;36.20;;;;;;4994539;28;20468;-80
2024/02/17 08:17:59;;;;;;;21.53;20.07;;;13.10;36.00;;;;;;4992420;28;20437;-80
2024/02/17 08:20:25;;;;;;;21.07;19.50;;;13.20;35.40;;;;;;4997774;28;20295;-80
2024/02/17 08:22:50;;;;;;;20.60;19.10;;;13.20;34.80;;;;;;4997413;28;20252;-80
2024/02/17 08:25:17;;;;;;;21.37;19.80;;;13.10;34.20;;;;;;4995650;28;20887;-81
2024/02/17 08:27:43;;;;;;;20.87;19.37;;;13.10;34.80;;;;;;4993985;28;20443;-79
2024/02/17 08:30:10;;;;;;;21.77;20.27;;;13.00;35.10;;;;;;4993228;28;20236;-79
2024/02/17 08:32:36;;;;;;;23.20;21.50;;;13.00;35.30;;;;;;4996660;28;20443;-79
2024/02/17 08:35:03;;;;;;;21.67;20.00;;;13.00;35.60;;;;;;4998887;28;20434;-81
2024/02/17 08:37:29;;;;;;;23.33;21.60;;;12.90;35.60;;;;;;5000211;28;20456;-79
2024/02/17 08:39:55;;;;;;;23.53;21.83;;;12.90;35.70;;;;;;4980996;28;20452;-79
2024/02/17 08:42:20;;;;;;;23.30;21.57;;;12.90;36.00;;;;;;4995251;28;20483;-81
2024/02/17 08:44:52;;;;;;;21.10;19.60;;;12.90;35.30;;;;;;4993746;28;20196;-81
2024/02/17 08:47:18;;;;;;;22.90;21.00;;;12.90;35.70;;;;;;4994357;28;20196;-80
2024/02/17 08:49:44;;;;;;;25.10;23.20;;;12.90;35.40;;;;;;4995923;28;20472;-80
2024/02/17 08:52:09;;;;;;;22.30;20.60;;;12.70;35.10;;;;;;4994167;28;20818;-81
2024/02/17 08:54:35;;;;;;;22.13;20.43;;;12.80;35.30;;;;;;4994986;28;20277;-81
2024/02/17 08:57:01;;;;;;;24.13;22.27;;;12.80;35.00;;;;;;4995534;28;20638;-80
2024/02/17 08:59:26;;;;;;;22.67;20.97;;;12.80;35.40;;;;;;5001081;28;20345;-80
2024/02/17 09:01:52;;;;;;;24.47;22.37;;;12.90;35.90;;;;;;5001494;28;20303;-81
2024/02/17 09:04:17;;;;;;;25.60;23.60;;;12.90;35.80;;;;;;4993185;28;20570;-81
2024/02/17 09:06:43;;;;;;;23.37;21.77;;;12.90;35.80;;;;;;4994672;28;20186;-81
2024/02/17 09:09:09;;;;;;;23.03;21.30;;;13.00;36.00;;;;;;4994437;28;20209;-81
2024/02/17 09:11:34;;;;;;;21.83;20.27;;;13.00;35.80;;;;;;4995277;28;20577;-81
2024/02/17 09:14:00;;;;;;;22.30;20.70;;;13.00;35.30;;;;;;5003620;28;20255;-81
2024/02/17 09:16:26;;;;;;;21.93;20.33;;;13.10;34.80;;;;;;4995600;28;20185;-80
2024/02/17 09:18:52;;;;;;;21.93;20.33;;;12.90;35.50;;;;;;4995171;28;20193;-80
2024/02/17 09:21:18;;;;;;;20.53;19.00;;;12.80;35.90;;;;;;4994042;28;20451;-79
2024/02/17 09:23:46;;;;;;;21.00;19.30;;;12.90;36.30;;;;;;4995007;28;20610;-79
2024/02/17 09:26:11;;;;;;;19.37;18.03;;;12.80;36.10;;;;;;4977022;28;20222;-79
2024/02/17 09:28:37;;;;;;;20.30;18.77;;;12.70;36.70;;;;;;5001958;28;20948;-80
2024/02/17 09:31:03;;;;;;;19.40;18.20;;;12.70;36.40;;;;;;4993964;28;20229;-80
2024/02/17 09:33:29;;;;;;;18.90;17.40;;;12.80;35.80;;;;;;4995335;28;20190;-80
2024/02/17 09:35:55;;;;;;;17.43;16.23;;;13.00;35.60;;;;;;4992285;28;20437;-80
2024/02/17 09:38:21;;;;;;;16.23;15.23;;;13.20;34.30;;;;;;4991484;28;20429;-80
2024/02/17 09:40:47;;;;;;;17.80;16.30;;;13.30;31.70;;;;;;4998329;28;20463;-80
2024/02/17 09:43:13;;;;;;;18.10;16.63;;;13.30;31.40;;;;;;5002616;28;20428;-80
2024/02/17 09:45:39;;;;;;;21.20;19.40;;;13.30;30.80;;;;;;5001772;28;20237;-80
2024/02/17 09:48:11;;;;;;;17.20;16.10;;;13.20;31.30;;;;;;5002863;28;20440;-80
2024/02/17 09:50:38;;;;;;;16.70;15.50;;;13.20;32.10;;;;;;5002749;28;20503;-80
2024/02/17 09:53:06;;;;;;;16.20;15.20;;;13.30;30.80;;;;;;4997843;28;20433;-80
2024/02/17 09:55:35;;;;;;;17.47;16.27;;;13.30;30.30;;;;;;5005703;28;20425;-80
2024/02/17 09:58:00;;;;;;;17.17;16.07;;;13.40;30.60;;;;;;5004942;28;20460;-80
2024/02/17 10:00:26;;;;;;;16.03;14.80;;;13.30;30.30;;;;;;5005259;28;20972;-80
2024/02/17 10:02:56;;;;;;;17.67;16.20;;;13.30;30.80;;;;;;4996333;28;20194;-80
2024/02/17 10:05:27;;;;;;;16.60;15.40;;;13.30;30.60;;;;;;5001591;28;20189;-80
2024/02/17 10:07:53;;;;;;;16.63;15.47;;;13.30;30.60;;;;;;5000788;28;20474;-80
2024/02/17 10:10:20;;;;;;;18.30;16.90;;;13.30;30.70;;;;;;4996912;28;20507;-81
2024/02/17 10:12:52;;;;;;;17.50;16.30;;;13.30;30.50;;;;;;4998178;28;20437;-81
2024/02/17 10:15:19;;;;;;;16.23;15.23;;;13.30;31.00;;;;;;4999920;28;20504;-80
2024/02/17 10:17:47;;;;;;;17.93;16.63;;;13.20;30.60;;;;;;5001923;28;20434;-80
2024/02/17 10:22:44;;;;;;;16.40;15.40;;;13.10;30.40;;;;;;5048317;28;20483;-80
2024/02/17 10:25:10;;;;;;;16.40;15.30;;;13.10;31.30;;;;;;5048070;28;20438;-79
2024/02/17 10:27:38;;;;;;;17.47;16.23;;;13.10;31.70;;;;;;5051232;28;20431;-79
2024/02/17 10:30:21;;;;;;;16.27;15.30;;;13.20;32.00;;;;;;5039678;28;20476;-80
2024/02/17 10:32:47;;;;;;;16.40;15.30;;;13.20;32.30;;;;;;5039037;28;20542;-80
2024/02/17 10:35:14;;;;;;;16.63;15.50;;;13.30;30.70;;;;;;5035594;28;20428;-81
2024/02/17 10:37:40;;;;;;;17.17;15.87;;;13.30;30.80;;;;;;5027911;28;20629;-80
2024/02/17 10:40:13;;;;;;;16.07;14.87;;;13.40;30.30;;;;;;5027075;28;20428;-80
2024/02/17 10:42:38;;;;;;;16.67;15.70;;;13.50;30.20;;;;;;5032606;28;20221;-80
2024/02/17 10:45:05;;;;;;;15.37;14.00;;;13.50;29.50;;;;;;5034303;28;20431;-81
2024/02/17 10:47:34;;;;;;;15.93;14.83;;;13.50;29.90;;;;;;5022609;28;20227;-79
2024/02/17 10:50:14;;;;;;;15.60;14.50;;;13.40;30.00;;;;;;5025239;28;20463;-80
2024/02/17 10:52:43;;;;;;;15.00;14.10;;;13.40;30.10;;;;;;5019482;28;20435;-80
2024/02/17 10:55:12;;;;;;;16.40;15.10;;;13.60;29.40;;;;;;5024372;28;20450;-81
2024/02/17 10:58:02;;;;;;;14.70;13.60;;;13.40;29.50;;;;;;5018355;28;20428;-80
2024/02/17 11:00:33;;;;;;;13.63;12.60;;;13.60;28.20;;;;;;5018102;28;20826;-79
2024/02/17 11:03:05;;;;;;;14.20;13.23;;;13.60;27.50;;;;;;5024492;28;20448;-79
2024/02/17 11:05:41;;;;;;;13.87;13.07;;;13.70;27.60;;;;;;5022507;28;20484;-79
2024/02/17 11:08:09;;;;;;;15.17;14.07;;;13.70;27.40;;;;;;5025124;28;20428;-79
2024/02/17 11:10:43;;;;;;;12.90;12.20;;;13.80;25.80;;;;;;5036871;28;20470;-80
2024/02/17 11:13:22;;;;;;;13.97;12.97;;;13.90;25.20;;;;;;5037427;28;20421;-80
2024/02/17 11:15:59;;;;;;;14.20;13.30;;;13.90;25.00;;;;;;5034700;28;20427;-80
2024/02/17 11:18:40;;;;;;;14.17;13.37;;;13.90;25.80;;;;;;5035788;28;20419;-80
2024/02/17 11:21:34;;;;;;;14.57;13.43;;;13.90;25.90;;;;;;5034742;28;20849;-79
2024/02/17 11:24:00;;;;;;;14.70;13.67;;;14.00;25.90;;;;;;5031023;28;20411;-80
2024/02/17 11:26:26;;;;;;;14.87;13.97;;;14.00;26.30;;;;;;5025404;28;20451;-79
2024/02/17 11:28:52;;;;;;;13.53;12.57;;;14.00;26.80;;;;;;5036573;28;20463;-80
2024/02/17 11:31:26;;;;;;;13.37;12.40;;;13.90;27.00;;;;;;5020629;28;20475;-80
2024/02/17 11:33:58;;;;;;;12.60;11.90;;;13.90;27.00;;;;;;5021649;28;20498;-80
2024/02/17 11:36:31;;;;;;;13.03;12.33;;;13.90;26.70;;;;;;5018559;28;20574;-81
2024/02/17 11:38:59;;;;;;;13.67;12.77;;;13.90;26.90;;;;;;5019423;28;20575;-79
2024/02/17 11:41:25;;;;;;;12.50;11.80;;;13.90;27.10;;;;;;5019875;28;20456;-79
2024/02/17 11:43:51;;;;;;;13.40;12.43;;;13.90;27.00;;;;;;5013120;28;20467;-80
2024/02/17 11:46:19;;;;;;;14.67;13.87;;;14.00;27.20;;;;;;5016047;28;21157;-80
2024/02/17 11:48:45;;;;;;;12.13;11.43;;;14.00;26.70;;;;;;5011339;28;22368;-80
2024/02/17 11:51:13;;;;;;;11.70;11.00;;;14.00;26.90;;;;;;4998550;28;20465;-80
2024/02/17 11:53:46;;;;;;;11.57;10.80;;;14.00;25.90;;;;;;5030666;28;20424;-79
2024/02/17 11:56:23;;;;;;;12.10;11.40;;;14.10;26.00;;;;;;5028579;28;20440;-80
2024/02/17 11:58:54;;;;;;;11.33;10.43;;;14.10;25.90;;;;;;5025807;28;20812;-81
2024/02/17 12:01:59;;;;;;;10.67;10.07;;;14.10;25.40;;;;;;5019090;28;20518;-81
2024/02/17 12:04:54;;;;;;;11.53;10.63;;;14.10;25.10;;;;;;5029413;28;20432;-81
2024/02/17 12:07:53;;;;;;;11.60;10.80;;;14.10;24.50;;;;;;5035910;28;20428;-80
2024/02/17 12:14:22;;;;;;;10.80;10.20;;;14.10;22.90;;;;;;5005818;28;20486;-80
2024/02/17 12:16:49;;;;;;;10.27;9.57;;;14.20;23.40;;;;;;5010595;28;20463;-80
2024/02/17 12:19:17;;;;;;;10.43;9.77;;;14.20;21.40;;;;;;5009675;28;20535;-81
2024/02/17 12:21:49;;;;;;;9.80;9.30;;;14.20;20.90;;;;;;5015160;28;21015;-82
2024/02/17 12:24:17;;;;;;;10.10;9.40;;;14.10;21.20;;;;;;5009952;28;20943;-81
2024/02/17 12:26:51;;;;;;;10.20;9.40;;;14.10;21.30;;;;;;5018698;28;20435;-82
2024/02/17 12:29:17;;;;;;;10.60;9.90;;;14.00;22.30;;;;;;5015575;28;20503;-81
2024/02/17 12:31:52;;;;;;;11.73;11.03;;;14.00;22.90;;;;;;5017187;28;20463;-81
2024/02/17 12:34:40;;;;;;;11.20;10.30;;;14.00;22.90;;;;;;5027407;28;20197;-82
2024/02/17 12:37:18;;;;;;;9.57;9.07;;;14.00;23.20;;;;;;5017610;28;20856;-81
2024/02/17 12:39:46;;;;;;;11.30;10.40;;;13.90;23.40;;;;;;5011144;28;20977;-82
2024/02/17 12:42:14;;;;;;;9.57;9.00;;;13.90;23.80;;;;;;5024817;28;20447;-81
2024/02/17 12:44:41;;;;;;;9.60;9.00;;;14.00;23.40;;;;;;5007275;28;20488;-82
2024/02/17 12:47:16;;;;;;;9.63;9.10;;;14.00;23.10;;;;;;5020394;28;20494;-81
2024/02/17 12:49:43;;;;;;;9.10;8.40;;;14.00;22.90;;;;;;5018519;28;20529;-81